createdAt,value
2022-07-30T00:02:42.087Z,101545.56
2022-07-30T00:06:04.030Z,101548.97
2022-07-30T00:09:25.897Z,101545.94
2022-07-30T00:12:49.046Z,101541.88
2022-07-30T00:16:11.757Z,101545.09
2022-07-30T00:19:34.141Z,101545.59
2022-07-30T00:22:57.034Z,101546.09
2022-07-30T00:26:18.721Z,101542.22
2022-07-30T00:29:45.007Z,101541.72
2022-07-30T00:33:08.075Z,101543.91
2022-07-30T00:36:29.783Z,101546.09
2022-07-30T00:39:51.656Z,101536.50
2022-07-30T00:43:16.667Z,101538.84
2022-07-30T00:46:40.208Z,101539.34
2022-07-30T00:50:04.532Z,101543.19
2022-07-30T00:53:26.305Z,101541.81
2022-07-30T00:56:49.068Z,101539.66
2022-07-30T01:00:14.451Z,101542.81
2022-07-30T01:03:38.863Z,101547.72
2022-07-30T01:07:00.962Z,101534.72
2022-07-30T01:10:23.045Z,101542.47
2022-07-30T01:13:45.650Z,101537.56
2022-07-30T01:17:07.909Z,101537.91
2022-07-30T01:20:34.475Z,101539.09
2022-07-30T01:24:01.268Z,101544.97
2022-07-30T01:27:26.177Z,101533.50
2022-07-30T01:30:50.155Z,101536.34
2022-07-30T01:34:14.942Z,101532.28
2022-07-30T01:37:38.051Z,101532.63
2022-07-30T01:41:01.150Z,101532.13
2022-07-30T01:44:26.987Z,101527.72
2022-07-30T01:47:50.393Z,101533.28
2022-07-30T01:51:14.387Z,101537.81
2022-07-30T01:54:41.387Z,101531.59
2022-07-30T01:58:04.637Z,101522.63
2022-07-30T02:01:29.496Z,101528.03
2022-07-30T02:04:53.588Z,101519.25
2022-07-30T02:08:19.842Z,101519.44
2022-07-30T02:12:05.678Z,101513.38
2022-07-30T02:15:32.985Z,101511.50
2022-07-30T02:19:04.342Z,101507.31
2022-07-30T02:22:34.561Z,101511.84
2022-07-30T02:26:00.443Z,101515.72
2022-07-30T02:29:24.877Z,101523.97
2022-07-30T02:32:49.819Z,101521.59
2022-07-30T02:36:14.676Z,101520.03
2022-07-30T02:39:39.759Z,101527.78
2022-07-30T02:43:02.664Z,101524.59
2022-07-30T02:46:27.306Z,101519.53
2022-07-30T02:50:10.684Z,101513.59
2022-07-30T02:53:35.676Z,101514.88
2022-07-30T02:56:58.083Z,101517.91
2022-07-30T03:00:20.304Z,101504.75
2022-07-30T03:03:43.872Z,101512.31
2022-07-30T03:07:08.601Z,101503.53
2022-07-30T03:10:33.685Z,101499.00
2022-07-30T03:13:55.277Z,101500.69
2022-07-30T03:17:18.332Z,101499.69
2022-07-30T03:20:41.278Z,101495.31
2022-07-30T03:24:04.320Z,101499.84
2022-07-30T03:27:29.428Z,101503.53
2022-07-30T03:30:51.840Z,101503.72
2022-07-30T03:34:14.541Z,101501.03
2022-07-30T03:37:38.174Z,101501.72
2022-07-30T03:41:01.439Z,101501.84
2022-07-30T03:44:24.808Z,101504.41
2022-07-30T03:47:47.801Z,101496.31
2022-07-30T03:51:11.032Z,101506.78
2022-07-30T03:54:36.301Z,101499.53
2022-07-30T03:58:27.397Z,101500.06
2022-07-30T04:01:55.656Z,101502.44
2022-07-30T04:05:45.912Z,101510.91
2022-07-30T04:09:09.217Z,101510.56
2022-07-30T04:12:31.335Z,101516.31
2022-07-30T04:16:05.046Z,101511.59
2022-07-30T04:19:48.148Z,101516.84
2022-07-30T04:23:11.735Z,101511.28
2022-07-30T04:26:36.106Z,101511.97
2022-07-30T04:29:59.864Z,101523.28
2022-07-30T04:33:21.852Z,101527.50
2022-07-30T04:37:14.398Z,101515.72
2022-07-30T04:40:36.122Z,101521.63
2022-07-30T04:43:58.105Z,101527.69
2022-07-30T04:47:21.429Z,101535.28
2022-07-30T04:51:21.096Z,101524.03
2022-07-30T04:54:50.157Z,101535.31
2022-07-30T04:58:14.631Z,101533.97
2022-07-30T05:01:40.640Z,101532.50
2022-07-30T05:05:04.797Z,101533.84
2022-07-30T05:08:28.145Z,101526.44
2022-07-30T05:11:56.247Z,101529.47
2022-07-30T05:15:18.604Z,101530.00
2022-07-30T05:18:40.473Z,101531.34
2022-07-30T05:22:06.583Z,101530.88
2022-07-30T05:25:30.090Z,101524.94
2022-07-30T05:29:04.064Z,101524.28
2022-07-30T05:32:51.549Z,101525.63
2022-07-30T05:36:13.529Z,101522.78
2022-07-30T05:39:35.543Z,101526.16
2022-07-30T05:43:41.992Z,101523.16
2022-07-30T05:47:05.029Z,101525.16
2022-07-30T05:50:26.883Z,101524.16
2022-07-30T05:53:48.480Z,101529.88
2022-07-30T05:57:42.034Z,101526.03
2022-07-30T06:01:03.641Z,101527.38
2022-07-30T06:04:28.117Z,101528.03
2022-07-30T06:07:55.270Z,101523.97
2022-07-30T06:11:18.417Z,101522.63
2022-07-30T06:14:40.574Z,101533.09
2022-07-30T06:18:05.549Z,101531.75
2022-07-30T06:22:02.119Z,101533.09
2022-07-30T06:25:24.456Z,101531.41
2022-07-30T06:28:46.229Z,101529.88
2022-07-30T06:32:12.564Z,101529.34
2022-07-30T06:35:34.534Z,101531.56
2022-07-30T06:38:57.545Z,101528.31
2022-07-30T06:42:31.457Z,101535.09
2022-07-30T06:46:16.030Z,101544.34
2022-07-30T06:49:41.662Z,101537.41
2022-07-30T06:53:05.395Z,101539.44
2022-07-30T06:56:48.574Z,101540.78
2022-07-30T07:00:11.866Z,101548.41
2022-07-30T07:03:39.854Z,101546.00
2022-07-30T07:07:12.665Z,101542.59
2022-07-30T07:10:36.411Z,101549.00
2022-07-30T07:14:25.429Z,101552.69
2022-07-30T07:17:47.242Z,101543.03
2022-07-30T07:21:26.319Z,101543.19
2022-07-30T07:24:49.557Z,101553.28
2022-07-30T07:28:18.238Z,101554.47
2022-07-30T07:32:02.805Z,101551.69
2022-07-30T07:35:23.655Z,101548.44
2022-07-30T07:38:45.484Z,101553.34
2022-07-30T07:42:08.036Z,101552.81
2022-07-30T07:45:32.042Z,101549.53
2022-07-30T07:49:01.285Z,101549.72
2022-07-30T07:52:29.385Z,101543.41
2022-07-30T07:55:51.219Z,101555.38
2022-07-30T07:59:17.190Z,101552.19
2022-07-30T08:02:39.733Z,101556.88
2022-07-30T08:06:06.801Z,101551.41
2022-07-30T08:09:51.924Z,101555.72
2022-07-30T08:13:52.126Z,101556.88
2022-07-30T08:17:25.069Z,101552.22
2022-07-30T08:21:08.603Z,101560.00
2022-07-30T08:24:30.423Z,101552.53
2022-07-30T08:27:52.556Z,101556.91
2022-07-30T08:31:14.846Z,101548.41
2022-07-30T08:34:36.569Z,101552.06
2022-07-30T08:38:00.184Z,101553.00
2022-07-30T08:41:23.875Z,101546.03
2022-07-30T08:44:47.035Z,101553.28
2022-07-30T08:48:16.282Z,101549.81
2022-07-30T08:51:40.085Z,101554.13
2022-07-30T08:55:22.412Z,101556.72
2022-07-30T08:58:44.548Z,101555.53
2022-07-30T09:02:10.385Z,101558.53
2022-07-30T09:05:48.546Z,101555.25
2022-07-30T09:09:11.059Z,101557.22
2022-07-30T09:12:40.390Z,101556.47
2022-07-30T09:16:03.399Z,101561.78
2022-07-30T09:19:27.047Z,101566.66
2022-07-30T09:22:50.276Z,101555.84
2022-07-30T09:26:32.979Z,101561.19
2022-07-30T09:30:50.241Z,101560.06
2022-07-30T09:34:32.259Z,101561.00
2022-07-30T09:38:06.471Z,101556.84
2022-07-30T09:41:58.375Z,101554.03
2022-07-30T09:45:20.018Z,101556.00
2022-07-30T09:48:44.746Z,101548.16
2022-07-30T09:52:06.913Z,101553.88
2022-07-30T09:55:34.541Z,101557.91
2022-07-30T09:58:56.462Z,101548.16
2022-07-30T10:02:19.534Z,101550.94
2022-07-30T10:06:03.822Z,101555.63
2022-07-30T10:09:30.675Z,101542.94
2022-07-30T10:12:54.235Z,101539.41
2022-07-30T10:16:16.327Z,101548.44
2022-07-30T10:19:40.482Z,101553.75
2022-07-30T10:23:27.070Z,101545.63
2022-07-30T10:27:10.233Z,101554.88
2022-07-30T10:30:46.303Z,101550.16
2022-07-30T10:34:11.874Z,101551.59
2022-07-30T10:37:35.869Z,101545.34
2022-07-30T10:41:06.171Z,101547.22
2022-07-30T10:44:59.958Z,101530.72
2022-07-30T10:48:22.694Z,101537.84
2022-07-30T10:51:46.782Z,101534.75
2022-07-30T10:55:15.858Z,101537.06
2022-07-30T10:58:58.578Z,101533.53
2022-07-30T11:02:24.949Z,101532.13
2022-07-30T11:05:51.445Z,101538.00
2022-07-30T11:09:36.475Z,101542.41
2022-07-30T11:13:03.355Z,101531.75
2022-07-30T11:17:04.019Z,101526.34
2022-07-30T11:20:26.339Z,101533.28
2022-07-30T11:23:49.529Z,101528.50
2022-07-30T11:27:41.781Z,101528.31
2022-07-30T11:31:10.353Z,101526.44
2022-07-30T11:34:33.645Z,101533.59
2022-07-30T11:38:04.236Z,101537.41
2022-07-30T11:41:26.885Z,101533.88
2022-07-30T11:44:48.862Z,101539.53
2022-07-30T11:48:13.017Z,101536.19
2022-07-30T11:51:43.697Z,101530.97
2022-07-30T11:55:06.354Z,101540.16
2022-07-30T11:58:30.049Z,101534.34
2022-07-30T12:01:56.021Z,101536.22
2022-07-30T12:05:24.417Z,101541.03
2022-07-30T12:08:49.071Z,101531.38
2022-07-30T12:12:23.574Z,101545.25
2022-07-30T12:15:47.511Z,101542.50
2022-07-30T12:19:09.838Z,101537.66
2022-07-30T12:22:34.181Z,101537.03
2022-07-30T12:25:58.499Z,101534.75
2022-07-30T12:29:20.757Z,101542.50
2022-07-30T12:32:42.828Z,101540.41
2022-07-30T12:36:05.350Z,101540.19
2022-07-30T12:39:28.119Z,101539.16
2022-07-30T12:42:54.832Z,101541.69
2022-07-30T12:46:19.463Z,101537.28
2022-07-30T12:49:48.833Z,101540.81
2022-07-30T12:53:11.407Z,101542.50
2022-07-30T12:56:32.874Z,101541.88
2022-07-30T13:00:06.574Z,101536.66
2022-07-30T13:03:39.173Z,101535.78
2022-07-30T13:07:05.190Z,101538.09
2022-07-30T13:10:31.133Z,101537.88
2022-07-30T13:13:53.979Z,101534.09
2022-07-30T13:17:17.012Z,101530.53
2022-07-30T13:20:39.103Z,101533.94
2022-07-30T13:24:01.553Z,101529.69
2022-07-30T13:27:23.334Z,101524.22
2022-07-30T13:30:45.664Z,101524.84
2022-07-30T13:34:08.683Z,101525.31
2022-07-30T13:37:37.474Z,101529.28
2022-07-30T13:41:02.611Z,101536.84
2022-07-30T13:44:24.595Z,101536.84
2022-07-30T13:47:46.580Z,101532.03
2022-07-30T13:51:09.837Z,101535.19
2022-07-30T13:54:31.727Z,101528.69
2022-07-30T13:57:53.559Z,101524.47
2022-07-30T14:01:18.192Z,101536.63
2022-07-30T14:04:40.428Z,101518.16
2022-07-30T14:08:04.643Z,101524.66
2022-07-30T14:11:26.960Z,101518.53
2022-07-30T14:14:49.308Z,101516.25
2022-07-30T14:18:11.205Z,101514.75
2022-07-30T14:21:33.179Z,101513.69
2022-07-30T14:24:56.494Z,101508.88
2022-07-30T14:28:17.984Z,101514.31
2022-07-30T14:31:40.615Z,101513.09
2022-07-30T14:35:02.224Z,101514.38
2022-07-30T14:38:25.451Z,101514.75
2022-07-30T14:41:52.296Z,101514.75
2022-07-30T14:45:17.693Z,101510.97
2022-07-30T14:48:39.583Z,101519.81
2022-07-30T14:52:01.962Z,101515.59
2022-07-30T14:55:23.835Z,101506.38
2022-07-30T14:58:46.982Z,101502.59
2022-07-30T15:02:10.887Z,101500.47
2022-07-30T15:05:32.707Z,101506.75
2022-07-30T15:08:54.585Z,101513.06
2022-07-30T15:12:23.886Z,101510.09
2022-07-30T15:15:50.375Z,101512.63
2022-07-30T15:19:13.663Z,101508.44
2022-07-30T15:22:35.628Z,101512.63
2022-07-30T15:25:57.233Z,101511.34
2022-07-30T15:29:21.071Z,101512.56
2022-07-30T15:32:44.742Z,101516.72
2022-07-30T15:36:07.285Z,101521.41
2022-07-30T15:39:29.626Z,101517.28
2022-07-30T15:42:51.277Z,101511.25
2022-07-30T15:46:13.173Z,101508.59
2022-07-30T15:49:36.274Z,101506.34
2022-07-30T15:52:58.497Z,101488.97
2022-07-30T15:56:20.737Z,101493.25
2022-07-30T15:59:42.299Z,101495.56
2022-07-30T16:03:04.302Z,101494.00
2022-07-30T16:06:27.673Z,101490.06
2022-07-30T16:09:49.503Z,101490.13
2022-07-30T16:13:11.240Z,101487.09
2022-07-30T16:16:32.928Z,101483.59
2022-07-30T16:19:55.017Z,101488.03
2022-07-30T16:23:21.250Z,101491.75
2022-07-30T16:26:43.481Z,101484.94
2022-07-30T16:30:05.722Z,101491.06
2022-07-30T16:33:27.664Z,101491.53
2022-07-30T16:36:49.467Z,101491.16
2022-07-30T16:40:13.583Z,101492.00
2022-07-30T16:43:35.948Z,101494.88
2022-07-30T16:46:57.714Z,101485.69
2022-07-30T16:50:20.005Z,101487.94
2022-07-30T16:53:41.823Z,101482.22
2022-07-30T16:57:10.385Z,101491.31
2022-07-30T17:00:32.387Z,101486.28
2022-07-30T17:03:54.084Z,101496.06
2022-07-30T17:07:16.067Z,101491.41
2022-07-30T17:10:37.623Z,101496.31
2022-07-30T17:14:04.167Z,101493.44
2022-07-30T17:17:25.721Z,101490.69
2022-07-30T17:20:47.644Z,101490.81
2022-07-30T17:24:13.490Z,101497.13
2022-07-30T17:27:35.671Z,101494.13
2022-07-30T17:30:58.625Z,101496.41
2022-07-30T17:34:21.400Z,101501.63
2022-07-30T17:37:42.979Z,101497.34
2022-07-30T17:41:04.829Z,101498.03
2022-07-30T17:44:27.181Z,101509.06
2022-07-30T17:47:49.811Z,101502.25
2022-07-30T17:51:11.616Z,101504.50
2022-07-30T17:54:33.539Z,101505.53
2022-07-30T17:57:55.652Z,101509.50
2022-07-30T18:01:17.835Z,101503.44
2022-07-30T18:04:41.176Z,101502.25
2022-07-30T18:08:03.023Z,101503.53
2022-07-30T18:11:25.629Z,101507.88
2022-07-30T18:14:47.505Z,101509.75
2022-07-30T18:18:09.436Z,101513.06
2022-07-30T18:21:32.342Z,101514.22
2022-07-30T18:24:53.825Z,101512.59
2022-07-30T18:28:15.611Z,101513.16
2022-07-30T18:31:37.390Z,101527.53
2022-07-30T18:34:59.283Z,101521.56
2022-07-30T18:38:22.715Z,101518.47
2022-07-30T18:41:45.916Z,101518.97
2022-07-30T18:45:08.608Z,101521.13
2022-07-30T18:48:30.407Z,101523.22
2022-07-30T18:51:52.354Z,101531.81
2022-07-30T18:55:17.319Z,101529.25
2022-07-30T18:58:39.258Z,101537.59
2022-07-30T19:02:01.445Z,101533.09
2022-07-30T19:05:23.069Z,101538.47
2022-07-30T19:08:44.713Z,101549.47
2022-07-30T19:12:08.165Z,101550.16
2022-07-30T19:15:29.891Z,101558.00
2022-07-30T19:18:51.921Z,101562.66
2022-07-30T19:22:13.621Z,101567.69
2022-07-30T19:25:37.118Z,101572.75
2022-07-30T19:29:00.080Z,101573.84
2022-07-30T19:32:21.593Z,101572.38
2022-07-30T19:35:43.479Z,101579.72
2022-07-30T19:39:07.410Z,101574.50
2022-07-30T19:42:29.300Z,101587.06
2022-07-30T19:45:53.510Z,101584.13
2022-07-30T19:49:19.840Z,101580.38
2022-07-30T19:52:51.373Z,101582.09
2022-07-30T19:56:13.242Z,101583.38
2022-07-30T19:59:45.012Z,101600.06
2022-07-30T20:03:12.702Z,101597.41
2022-07-30T20:06:36.275Z,101601.50
2022-07-30T20:10:00.396Z,101604.94
2022-07-30T20:13:23.418Z,101596.91
2022-07-30T20:16:45.565Z,101602.38
2022-07-30T20:20:09.772Z,101603.44
2022-07-30T20:23:31.638Z,101600.34
2022-07-30T20:26:53.565Z,101596.19
2022-07-30T20:30:15.352Z,101600.28
2022-07-30T20:33:39.129Z,101599.84
2022-07-30T20:37:15.083Z,101599.03
2022-07-30T20:40:46.565Z,101605.66
2022-07-30T20:44:11.137Z,101601.47
2022-07-30T20:47:38.714Z,101604.41
2022-07-30T20:51:00.424Z,101603.59
2022-07-30T20:54:23.674Z,101611.72
2022-07-30T20:58:01.132Z,101602.13
2022-07-30T21:01:28.373Z,101600.47
2022-07-30T21:04:56.659Z,101603.97
2022-07-30T21:08:25.170Z,101605.69
2022-07-30T21:11:50.411Z,101602.81
2022-07-30T21:15:23.887Z,101597.22
2022-07-30T21:18:50.475Z,101598.09
2022-07-30T21:22:12.213Z,101589.81
2022-07-30T21:25:41.524Z,101589.84
2022-07-30T21:29:19.505Z,101594.91
2022-07-30T21:32:42.222Z,101593.72
2022-07-30T21:36:04.174Z,101593.53
2022-07-30T21:39:29.145Z,101589.81
2022-07-30T21:42:50.718Z,101595.88
2022-07-30T21:46:14.500Z,101602.97
2022-07-30T21:49:36.327Z,101596.47
2022-07-30T21:52:58.074Z,101594.44
2022-07-30T21:56:20.425Z,101591.59
2022-07-30T21:59:42.119Z,101595.78
2022-07-30T22:03:12.421Z,101593.75
2022-07-30T22:06:47.058Z,101596.25
2022-07-30T22:10:09.461Z,101594.19
2022-07-30T22:13:32.555Z,101594.00
2022-07-30T22:16:54.578Z,101601.72
2022-07-30T22:20:17.697Z,101598.84
2022-07-30T22:23:40.338Z,101599.34
2022-07-30T22:27:16.742Z,101595.59
2022-07-30T22:30:38.583Z,101606.03
2022-07-30T22:34:00.509Z,101597.88
2022-07-30T22:37:23.417Z,101601.88
2022-07-30T22:40:44.898Z,101599.84
2022-07-30T22:44:06.726Z,101604.50
2022-07-30T22:47:51.500Z,101601.13
2022-07-30T22:51:16.095Z,101598.06
2022-07-30T22:54:39.735Z,101589.09
2022-07-30T22:58:01.496Z,101590.03
2022-07-30T23:01:23.270Z,101595.38
2022-07-30T23:04:45.254Z,101592.75
2022-07-30T23:08:07.364Z,101589.00
2022-07-30T23:11:37.169Z,101585.41
2022-07-30T23:14:59.753Z,101578.94
2022-07-30T23:18:21.298Z,101580.56
2022-07-30T23:21:48.654Z,101582.16
2022-07-30T23:25:12.052Z,101584.34
2022-07-30T23:28:35.373Z,101581.09
2022-07-30T23:31:57.417Z,101574.50
2022-07-30T23:35:19.141Z,101579.47
2022-07-30T23:38:40.994Z,101580.91
2022-07-30T23:42:02.698Z,101576.97
2022-07-30T23:45:26.035Z,101576.75
2022-07-30T23:48:47.861Z,101573.13
2022-07-30T23:52:09.967Z,101582.50
2022-07-30T23:55:33.398Z,101573.19
2022-07-30T23:58:55.142Z,101569.25
